createdAt,value
2018-04-01T00:01:03.990Z,36.22
2018-04-01T00:03:31.518Z,35.00
2018-04-01T00:05:59.054Z,35.53
2018-04-01T00:08:26.562Z,35.50
2018-04-01T00:10:54.093Z,38.72
2018-04-01T00:13:21.614Z,38.42
2018-04-01T00:15:49.155Z,37.92
2018-04-01T00:18:16.761Z,38.55
2018-04-01T00:20:44.253Z,35.72
2018-04-01T00:23:11.813Z,38.13
2018-04-01T00:25:39.373Z,37.00
2018-04-01T00:28:06.929Z,38.65
2018-04-01T00:30:34.439Z,38.28
2018-04-01T00:33:01.972Z,41.17
2018-04-01T00:35:29.495Z,39.72
2018-04-01T00:37:56.986Z,41.72
2018-04-01T00:40:24.563Z,43.25
2018-04-01T00:42:52.073Z,40.28
2018-04-01T00:45:19.652Z,42.58
2018-04-01T00:47:47.202Z,42.85
2018-04-01T00:50:14.677Z,43.65
2018-04-01T00:52:42.182Z,43.10
2018-04-01T00:55:09.732Z,40.72
2018-04-01T00:57:37.229Z,38.60
2018-04-01T01:00:04.758Z,40.40
2018-04-01T01:02:32.257Z,40.63
2018-04-01T01:04:59.778Z,38.75
2018-04-01T01:07:27.284Z,42.35
2018-04-01T01:09:54.802Z,41.72
2018-04-01T01:12:22.301Z,42.65
2018-04-01T01:14:49.820Z,42.25
2018-04-01T01:17:17.327Z,42.10
2018-04-01T01:19:44.845Z,42.60
2018-04-01T01:22:12.341Z,43.30
2018-04-01T01:24:39.862Z,45.67
2018-04-01T01:27:07.371Z,44.15
2018-04-01T01:29:34.898Z,42.33
2018-04-01T01:32:02.415Z,42.20
2018-04-01T01:34:29.938Z,43.03
2018-04-01T01:36:57.442Z,45.45
2018-04-01T01:39:24.965Z,45.05
2018-04-01T01:41:52.461Z,43.33
2018-04-01T01:44:19.981Z,42.90
2018-04-01T01:46:47.487Z,44.75
2018-04-01T01:49:15.005Z,43.20
2018-04-01T01:51:42.510Z,44.17
2018-04-01T01:54:10.029Z,45.12
2018-04-01T01:56:37.533Z,46.50
2018-04-01T01:59:05.057Z,50.67
2018-04-01T02:01:32.566Z,47.30
2018-04-01T02:04:00.094Z,41.30
2018-04-01T02:06:27.598Z,40.15
2018-04-01T02:08:55.118Z,39.97
2018-04-01T02:11:22.626Z,42.17
2018-04-01T02:13:50.135Z,40.50
2018-04-01T02:16:17.654Z,41.42
2018-04-01T02:18:45.162Z,44.38
2018-04-01T02:21:12.685Z,42.90
2018-04-01T02:23:40.186Z,41.00
2018-04-01T02:26:07.708Z,39.88
2018-04-01T02:28:35.212Z,43.28
2018-04-01T02:31:02.730Z,40.65
2018-04-01T02:36:04.030Z,42.20
2018-04-01T02:38:31.535Z,42.65
2018-04-01T02:40:59.062Z,41.53
2018-04-01T02:43:26.558Z,43.55
2018-04-01T02:45:54.084Z,46.83
2018-04-01T02:48:21.590Z,46.35
2018-04-01T02:50:49.111Z,47.70
2018-04-01T02:53:16.621Z,47.95
2018-04-01T02:55:44.143Z,47.33
2018-04-01T02:58:11.647Z,49.67
2018-04-01T03:00:39.177Z,49.10
2018-04-01T03:03:06.697Z,53.97
2018-04-01T03:05:34.223Z,53.42
2018-04-01T03:08:01.731Z,53.95
2018-04-01T03:10:29.266Z,54.22
2018-04-01T03:12:56.772Z,53.35
2018-04-01T03:15:24.305Z,51.47
2018-04-01T03:17:51.806Z,53.45
2018-04-01T03:20:19.338Z,52.45
2018-04-01T03:22:46.855Z,52.50
2018-04-01T03:25:14.387Z,48.85
2018-04-01T03:27:41.885Z,50.72
2018-04-01T03:30:09.429Z,50.03
2018-04-01T03:32:36.933Z,51.70
2018-04-01T03:35:04.458Z,48.53
2018-04-01T03:37:31.967Z,52.47
2018-04-01T03:39:59.486Z,51.35
2018-04-01T03:42:26.994Z,50.92
2018-04-01T03:44:54.522Z,55.30
2018-04-01T03:47:22.026Z,57.78
2018-04-01T03:49:49.561Z,57.75
2018-04-01T03:52:17.069Z,55.03
2018-04-01T03:54:44.578Z,57.80
2018-04-01T03:57:12.115Z,56.33
2018-04-01T03:59:39.622Z,55.20
2018-04-01T04:02:07.150Z,55.45
2018-04-01T04:04:34.658Z,56.15
2018-04-01T04:07:02.199Z,48.85
2018-04-01T04:09:29.698Z,47.72
2018-04-01T04:11:57.221Z,42.30
2018-04-01T04:14:24.723Z,44.25
2018-04-01T04:16:52.246Z,44.08
2018-04-01T04:19:19.755Z,44.13
2018-04-01T04:21:47.286Z,46.20
2018-04-01T04:24:14.785Z,47.38
2018-04-01T04:26:42.327Z,49.15
2018-04-01T04:29:09.834Z,47.50
2018-04-01T04:31:37.358Z,43.97
2018-04-01T04:34:04.873Z,41.75
2018-04-01T04:36:32.425Z,40.55
2018-04-01T04:38:59.886Z,40.95
2018-04-01T04:41:27.413Z,41.65
2018-04-01T04:43:54.914Z,40.15
2018-04-01T04:46:22.452Z,43.10
2018-04-01T04:48:49.938Z,39.17
2018-04-01T04:51:17.465Z,42.85
2018-04-01T04:53:44.966Z,42.70
2018-04-01T04:56:12.496Z,41.90
2018-04-01T04:58:40.002Z,40.40
2018-04-01T05:01:07.518Z,39.50
2018-04-01T05:03:35.029Z,39.05
2018-04-01T05:06:02.550Z,40.28
2018-04-01T05:08:30.085Z,40.17
2018-04-01T05:10:57.589Z,40.25
2018-04-01T05:13:25.099Z,41.42
2018-04-01T05:15:52.615Z,41.35
2018-04-01T05:18:20.118Z,40.35
2018-04-01T05:20:47.649Z,40.47
2018-04-01T05:23:15.154Z,38.10
2018-04-01T05:25:42.673Z,35.72
2018-04-01T05:28:10.180Z,37.35
2018-04-01T05:30:37.683Z,37.13
2018-04-01T05:33:05.205Z,37.20
2018-04-01T05:35:32.707Z,37.88
2018-04-01T05:38:00.235Z,34.60
2018-04-01T05:40:27.737Z,35.58
2018-04-01T05:42:55.262Z,35.47
2018-04-01T05:45:22.772Z,35.75
2018-04-01T05:47:50.281Z,35.80
2018-04-01T05:50:17.782Z,33.38
2018-04-01T05:52:45.297Z,33.35
2018-04-01T05:55:12.802Z,32.85
2018-04-01T05:57:40.331Z,33.03
2018-04-01T06:00:07.833Z,29.52
2018-04-01T06:02:35.354Z,24.92
2018-04-01T06:05:02.861Z,23.17
2018-04-01T06:07:30.386Z,19.85
2018-04-01T06:09:57.893Z,19.25
2018-04-01T06:12:25.414Z,18.08
2018-04-01T06:14:52.913Z,17.45
2018-04-01T06:17:20.439Z,19.27
2018-04-01T06:19:47.941Z,17.48
2018-04-01T06:22:15.462Z,19.60
2018-04-01T06:24:42.961Z,17.48
2018-04-01T06:27:10.483Z,16.75
2018-04-01T06:29:38.067Z,17.40
2018-04-01T06:32:05.590Z,16.55
2018-04-01T06:34:33.090Z,16.77
2018-04-01T06:37:00.616Z,16.58
2018-04-01T06:39:28.114Z,18.62
2018-04-01T06:41:55.638Z,18.20
2018-04-01T06:44:23.139Z,17.80
2018-04-01T06:46:50.659Z,17.67
2018-04-01T06:49:18.153Z,18.33
2018-04-01T06:51:45.678Z,17.33
2018-04-01T06:54:13.186Z,18.17
2018-04-01T06:56:40.702Z,19.83
2018-04-01T06:59:08.202Z,19.33
2018-04-01T07:01:35.727Z,19.45
2018-04-01T07:04:03.254Z,17.40
2018-04-01T07:06:30.754Z,18.15
2018-04-01T07:08:58.274Z,18.05
2018-04-01T07:11:25.782Z,17.95
2018-04-01T07:13:53.302Z,18.65
2018-04-01T07:16:20.807Z,18.85
2018-04-01T07:18:48.330Z,17.80
2018-04-01T07:21:15.831Z,18.10
2018-04-01T07:23:43.452Z,17.42
2018-04-01T07:26:10.858Z,19.00
2018-04-01T07:28:38.377Z,18.37
2018-04-01T07:31:05.883Z,16.95
2018-04-01T07:33:33.402Z,17.15
2018-04-01T07:36:00.901Z,17.67
2018-04-01T07:38:28.454Z,17.23
2018-04-01T07:40:55.967Z,17.70
2018-04-01T07:43:23.494Z,17.93
2018-04-01T07:45:51.008Z,18.12
2018-04-01T07:48:18.538Z,16.27
2018-04-01T07:50:46.053Z,16.90
2018-04-01T07:53:13.574Z,17.50
2018-04-01T07:55:41.082Z,18.45
2018-04-01T07:58:09.307Z,18.87
2018-04-01T08:00:36.815Z,18.93
2018-04-01T08:03:04.346Z,18.50
2018-04-01T08:05:31.879Z,18.83
2018-04-01T08:07:59.421Z,19.70
2018-04-01T08:10:26.903Z,19.25
2018-04-01T08:12:54.435Z,18.92
2018-04-01T08:15:21.938Z,18.25
2018-04-01T08:17:49.555Z,18.80
2018-04-01T08:20:17.054Z,18.10
2018-04-01T08:22:44.582Z,17.20
2018-04-01T08:25:12.090Z,18.30
2018-04-01T08:27:39.614Z,17.67
2018-04-01T08:30:07.118Z,17.37
2018-04-01T08:32:34.642Z,16.20
2018-04-01T08:35:02.930Z,17.25
2018-04-01T08:37:30.470Z,30.80
2018-04-01T08:39:57.982Z,21.03
2018-04-01T08:42:25.482Z,19.03
2018-04-01T08:44:53.005Z,16.75
2018-04-01T08:47:20.514Z,18.83
2018-04-01T08:49:48.914Z,17.77
2018-04-01T08:52:16.417Z,18.42
2018-04-01T08:54:43.946Z,18.13
2018-04-01T08:57:11.446Z,18.10
2018-04-01T08:59:38.970Z,18.40
2018-04-01T09:02:06.474Z,18.75
2018-04-01T09:04:34.010Z,18.20
2018-04-01T09:07:01.510Z,17.20
2018-04-01T09:09:29.030Z,17.47
2018-04-01T09:11:56.538Z,20.80
2018-04-01T09:14:24.062Z,20.20
2018-04-01T09:16:51.566Z,24.50
2018-04-01T09:19:19.087Z,23.75
2018-04-01T09:21:46.589Z,25.17
2018-04-01T09:24:14.110Z,29.23
2018-04-01T09:26:41.608Z,31.65
2018-04-01T09:29:09.130Z,30.17
2018-04-01T09:31:36.630Z,26.65
2018-04-01T09:34:04.150Z,21.77
2018-04-01T09:36:31.659Z,22.17
2018-04-01T09:38:59.176Z,22.08
2018-04-01T09:41:26.674Z,21.23
2018-04-01T09:43:54.196Z,21.33
2018-04-01T09:46:21.695Z,21.45
2018-04-01T09:48:49.218Z,19.37
2018-04-01T09:51:16.714Z,18.17
2018-04-01T09:53:44.234Z,19.45
2018-04-01T09:56:11.744Z,18.20
2018-04-01T09:58:39.257Z,18.10
2018-04-01T10:01:12.728Z,19.33
2018-04-01T10:03:40.788Z,19.73
2018-04-01T10:06:08.817Z,17.70
2018-04-01T10:08:37.166Z,18.00
2018-04-01T10:11:05.481Z,19.67
2018-04-01T10:13:33.848Z,18.75
2018-04-01T10:16:02.141Z,19.95
2018-04-01T10:18:30.479Z,19.42
2018-04-01T10:20:58.798Z,19.12
2018-04-01T10:23:27.119Z,18.05
2018-04-01T10:25:55.454Z,17.87
2018-04-01T10:28:23.774Z,17.90
2018-04-01T10:30:52.117Z,16.48
2018-04-01T10:33:20.434Z,17.25
2018-04-01T10:35:48.782Z,16.77
2018-04-01T10:38:17.102Z,17.35
2018-04-01T10:40:45.442Z,17.08
2018-04-01T10:43:13.762Z,16.95
2018-04-01T10:45:42.106Z,16.77
2018-04-01T10:48:10.425Z,17.20
2018-04-01T10:50:38.770Z,17.33
2018-04-01T10:53:07.087Z,17.05
2018-04-01T10:55:34.886Z,17.37
2018-04-01T10:58:02.388Z,17.15
2018-04-01T11:00:29.913Z,16.95
2018-04-01T11:02:57.420Z,17.85
2018-04-01T11:05:24.944Z,15.93
2018-04-01T11:07:52.443Z,16.92
2018-04-01T11:10:20.017Z,15.40
2018-04-01T11:12:47.462Z,14.65
2018-04-01T11:15:14.983Z,14.80
2018-04-01T11:17:42.481Z,14.10
2018-04-01T11:20:10.003Z,15.63
2018-04-01T11:22:37.499Z,15.25
2018-04-01T11:25:05.018Z,13.88
2018-04-01T11:27:32.514Z,14.43
2018-04-01T11:30:00.042Z,14.13
2018-04-01T11:32:27.542Z,14.32
2018-04-01T11:34:55.061Z,15.00
2018-04-01T11:37:22.563Z,18.45
2018-04-01T11:39:50.082Z,22.37
2018-04-01T11:42:17.596Z,24.77
2018-04-01T11:44:45.114Z,25.48
2018-04-01T11:47:12.614Z,26.25
2018-04-01T11:49:40.141Z,30.25
2018-04-01T11:52:07.645Z,30.25
2018-04-01T11:54:35.167Z,27.33
2018-04-01T11:57:02.668Z,27.75
2018-04-01T11:59:30.186Z,27.23
2018-04-01T12:01:57.687Z,26.87
2018-04-01T12:04:25.210Z,29.33
2018-04-01T12:06:52.729Z,28.60
2018-04-01T12:09:20.230Z,25.33
2018-04-01T12:11:47.750Z,23.80
2018-04-01T12:14:15.291Z,23.48
2018-04-01T12:16:42.770Z,22.48
2018-04-01T12:19:10.270Z,22.17
2018-04-01T12:21:37.790Z,19.65
2018-04-01T12:24:05.294Z,21.00
2018-04-01T12:26:32.818Z,20.48
2018-04-01T12:29:00.313Z,19.10
2018-04-01T12:31:27.834Z,21.40
2018-04-01T12:33:55.338Z,19.12
2018-04-01T12:36:22.854Z,19.33
2018-04-01T12:38:50.359Z,20.17
2018-04-01T12:41:17.874Z,20.77
2018-04-01T12:43:45.378Z,17.50
2018-04-01T12:46:13.233Z,16.95
2018-04-01T12:48:40.731Z,17.02
2018-04-01T12:51:08.254Z,17.85
2018-04-01T12:53:35.747Z,14.93
2018-04-01T12:56:03.266Z,15.80
2018-04-01T12:58:30.766Z,14.90
2018-04-01T13:00:58.290Z,14.80
2018-04-01T13:03:25.790Z,13.35
2018-04-01T13:05:53.311Z,14.32
2018-04-01T13:08:20.811Z,16.25
2018-04-01T13:10:48.329Z,13.80
2018-04-01T13:13:15.831Z,13.62
2018-04-01T13:15:43.346Z,14.05
2018-04-01T13:18:10.851Z,14.98
2018-04-01T13:20:38.378Z,15.10
2018-04-01T13:23:05.876Z,15.77
2018-04-01T13:25:33.397Z,15.57
2018-04-01T13:28:00.923Z,15.63
2018-04-01T13:30:28.446Z,14.87
2018-04-01T13:32:55.945Z,15.93
2018-04-01T13:35:23.478Z,15.60
2018-04-01T13:37:50.974Z,17.75
2018-04-01T13:40:18.478Z,16.62
2018-04-01T13:42:46.001Z,17.87
2018-04-01T13:45:13.501Z,18.83
2018-04-01T13:47:41.030Z,20.60
2018-04-01T13:50:08.537Z,20.30
2018-04-01T13:52:36.053Z,19.90
2018-04-01T13:55:03.554Z,20.73
2018-04-01T13:57:31.078Z,20.67
2018-04-01T13:59:58.578Z,18.95
2018-04-01T14:02:26.106Z,16.52
2018-04-01T14:04:53.613Z,16.37
2018-04-01T14:07:21.134Z,17.37
2018-04-01T14:09:48.638Z,17.92
2018-04-01T14:12:16.161Z,17.37
2018-04-01T14:14:43.675Z,17.35
2018-04-01T14:17:11.201Z,13.85
2018-04-01T14:19:38.701Z,13.43
2018-04-01T14:22:06.229Z,14.07
2018-04-01T14:24:33.727Z,13.95
2018-04-01T14:27:01.246Z,13.32
2018-04-01T14:29:28.749Z,14.05
2018-04-01T14:31:56.278Z,13.05
2018-04-01T14:34:23.780Z,12.25
2018-04-01T14:36:51.307Z,14.10
2018-04-01T14:39:18.814Z,12.63
2018-04-01T14:41:46.351Z,13.90
2018-04-01T14:44:13.852Z,13.02
2018-04-01T14:46:41.370Z,14.30
2018-04-01T14:49:08.870Z,13.75
2018-04-01T14:51:36.389Z,14.02
2018-04-01T14:54:03.889Z,13.40
2018-04-01T14:56:31.406Z,13.40
2018-04-01T14:58:58.910Z,14.80
2018-04-01T15:01:26.435Z,20.27
2018-04-01T15:03:53.927Z,13.23
2018-04-01T15:06:21.451Z,19.10
2018-04-01T15:08:48.950Z,17.52
2018-04-01T15:11:16.474Z,14.00
2018-04-01T15:13:43.970Z,13.88
2018-04-01T15:16:11.466Z,13.85
2018-04-01T15:18:38.991Z,13.82
2018-04-01T15:21:06.493Z,13.25
2018-04-01T15:23:34.853Z,13.00
2018-04-01T15:26:02.354Z,12.27
2018-04-01T15:28:29.882Z,12.27
2018-04-01T15:30:58.234Z,13.62
2018-04-01T15:33:25.761Z,14.30
2018-04-01T15:35:53.538Z,12.90
2018-04-01T15:38:21.098Z,13.57
2018-04-01T15:40:48.608Z,15.00
2018-04-01T15:43:16.227Z,13.33
2018-04-01T15:45:43.827Z,14.53
2018-04-01T15:48:11.347Z,18.73
2018-04-01T15:50:38.854Z,14.83
2018-04-01T15:53:06.496Z,16.93
2018-04-01T15:55:34.043Z,15.48
2018-04-01T15:58:01.577Z,13.57
2018-04-01T16:00:29.108Z,16.50
2018-04-01T16:02:56.647Z,15.57
2018-04-01T16:05:24.150Z,15.50
2018-04-01T16:07:51.674Z,15.13
2018-04-01T16:10:19.174Z,15.40
2018-04-01T16:12:46.703Z,15.33
2018-04-01T16:15:14.206Z,15.27
2018-04-01T16:17:41.728Z,15.13
2018-04-01T16:20:09.235Z,13.70
2018-04-01T16:22:36.781Z,14.53
2018-04-01T16:25:04.282Z,15.27
2018-04-01T16:27:31.808Z,13.20
2018-04-01T16:29:59.384Z,15.05
2018-04-01T16:32:26.968Z,16.37
2018-04-01T16:34:54.622Z,17.30
2018-04-01T16:37:22.323Z,15.10
2018-04-01T16:39:49.826Z,14.77
2018-04-01T16:42:17.354Z,14.87
2018-04-01T16:44:44.855Z,16.07
2018-04-01T16:47:12.382Z,15.73
2018-04-01T16:49:39.885Z,15.53
2018-04-01T16:52:07.389Z,15.30
2018-04-01T16:54:34.918Z,17.48
2018-04-01T16:57:02.426Z,25.00
2018-04-01T16:59:29.998Z,21.27
2018-04-01T17:01:57.470Z,18.77
2018-04-01T17:04:25.020Z,18.70
2018-04-01T17:06:52.517Z,19.20
2018-04-01T17:09:20.087Z,19.50
2018-04-01T17:11:47.572Z,19.12
2018-04-01T17:14:15.102Z,19.77
2018-04-01T17:16:42.606Z,17.42
2018-04-01T17:19:10.131Z,19.53
2018-04-01T17:21:37.651Z,20.70
2018-04-01T17:24:05.173Z,22.27
2018-04-01T17:26:32.690Z,22.23
2018-04-01T17:29:00.214Z,21.07
2018-04-01T17:31:27.725Z,22.90
2018-04-01T17:33:55.311Z,25.00
2018-04-01T17:36:23.790Z,23.60
2018-04-01T17:38:51.420Z,23.80
2018-04-01T17:41:18.945Z,24.57
2018-04-01T17:43:46.477Z,25.37
2018-04-01T17:46:14.006Z,30.53
2018-04-01T17:48:41.526Z,35.50
2018-04-01T17:51:09.026Z,38.43
2018-04-01T17:53:36.557Z,41.70
2018-04-01T17:56:04.061Z,41.33
2018-04-01T17:58:31.594Z,42.75
2018-04-01T18:00:59.107Z,42.67
2018-04-01T18:03:26.658Z,40.70
2018-04-01T18:05:54.166Z,39.93
2018-04-01T18:08:21.691Z,40.57
2018-04-01T18:10:49.258Z,41.97
2018-04-01T18:13:16.766Z,37.13
2018-04-01T18:15:44.275Z,38.28
2018-04-01T18:18:11.800Z,36.20
2018-04-01T18:20:39.303Z,34.70
2018-04-01T18:23:06.898Z,34.57
2018-04-01T18:25:34.402Z,35.00
2018-04-01T18:28:01.913Z,34.97
2018-04-01T18:30:29.435Z,34.73
2018-04-01T18:32:56.971Z,33.75
2018-04-01T18:35:24.486Z,39.13
2018-04-01T18:37:51.990Z,37.37
2018-04-01T18:40:19.607Z,40.20
2018-04-01T18:42:47.131Z,41.10
2018-04-01T18:45:14.674Z,48.22
2018-04-01T18:47:42.238Z,45.33
2018-04-01T18:50:09.743Z,48.75
2018-04-01T18:52:37.251Z,46.97
2018-04-01T18:55:04.782Z,47.33
2018-04-01T18:57:32.291Z,45.47
2018-04-01T18:59:59.814Z,47.93
2018-04-01T19:02:27.345Z,46.73
2018-04-01T19:04:54.866Z,46.40
2018-04-01T19:07:22.371Z,46.87
2018-04-01T19:09:50.305Z,46.35
2018-04-01T19:12:17.811Z,46.53
2018-04-01T19:14:45.341Z,47.40
2018-04-01T19:17:13.390Z,46.93
2018-04-01T19:19:41.743Z,48.20
2018-04-01T19:22:10.080Z,48.70
2018-04-01T19:24:38.433Z,51.40
2018-04-01T19:27:06.757Z,49.37
2018-04-01T19:29:35.114Z,47.87
2018-04-01T19:32:03.462Z,47.87
2018-04-01T19:34:31.783Z,45.83
2018-04-01T19:37:00.113Z,46.40
2018-04-01T19:39:28.460Z,44.17
2018-04-01T19:41:56.787Z,45.47
2018-04-01T19:44:25.133Z,42.90
2018-04-01T19:46:53.458Z,42.50
2018-04-01T19:49:21.798Z,41.83
2018-04-01T19:51:50.131Z,41.77
2018-04-01T19:54:18.481Z,43.38
2018-04-01T19:56:46.799Z,41.87
2018-04-01T19:59:15.191Z,41.13
2018-04-01T20:01:43.465Z,37.47
2018-04-01T20:04:11.806Z,38.60
2018-04-01T20:06:40.135Z,38.80
2018-04-01T20:09:08.478Z,36.87
2018-04-01T20:11:36.806Z,36.40
2018-04-01T20:14:05.211Z,37.47
2018-04-01T20:16:33.479Z,36.03
2018-04-01T20:19:01.803Z,34.50
2018-04-01T20:21:30.151Z,35.57
2018-04-01T20:23:58.473Z,33.42
2018-04-01T20:26:26.818Z,33.97
2018-04-01T20:28:55.138Z,31.00
2018-04-01T20:31:23.486Z,31.30
2018-04-01T20:33:51.827Z,31.95
2018-04-01T20:36:20.170Z,29.67
2018-04-01T20:38:48.491Z,28.80
2018-04-01T20:41:16.830Z,30.67
2018-04-01T20:43:45.161Z,30.70
2018-04-01T20:46:13.503Z,29.40
2018-04-01T20:48:41.825Z,30.70
2018-04-01T20:51:10.178Z,32.17
2018-04-01T20:53:38.493Z,31.23
2018-04-01T20:56:06.833Z,32.30
2018-04-01T20:58:35.166Z,33.30
2018-04-01T21:01:03.514Z,33.87
2018-04-01T21:03:31.843Z,33.72
2018-04-01T21:06:00.186Z,36.30
2018-04-01T21:08:28.522Z,38.50
2018-04-01T21:10:56.862Z,40.00
2018-04-01T21:13:25.186Z,38.72
2018-04-01T21:15:53.529Z,36.60
2018-04-01T21:18:21.852Z,39.10
2018-04-01T21:20:50.201Z,42.20
2018-04-01T21:23:18.522Z,41.50
2018-04-01T21:25:46.870Z,42.63
2018-04-01T21:28:15.196Z,41.37
2018-04-01T21:30:43.538Z,42.13
2018-04-01T21:33:11.864Z,43.30
2018-04-01T21:35:40.206Z,45.10
2018-04-01T21:38:08.526Z,45.10
2018-04-01T21:40:36.871Z,44.37
2018-04-01T21:43:05.194Z,47.03
2018-04-01T21:45:33.542Z,44.03
2018-04-01T21:48:01.867Z,46.42
2018-04-01T21:50:30.210Z,47.00
2018-04-01T21:52:58.529Z,45.60
2018-04-01T21:55:26.879Z,48.20
2018-04-01T21:57:55.202Z,45.20
2018-04-01T22:00:23.541Z,46.73
2018-04-01T22:02:51.866Z,48.22
2018-04-01T22:05:20.210Z,43.57
2018-04-01T22:07:48.534Z,50.00
2018-04-01T22:10:16.886Z,48.13
2018-04-01T22:12:45.218Z,45.73
2018-04-01T22:15:13.563Z,44.17
2018-04-01T22:17:41.890Z,45.15
2018-04-01T22:20:10.210Z,48.63
2018-04-01T22:22:50.351Z,46.70
2018-04-01T22:25:18.698Z,46.40
2018-04-01T22:27:47.042Z,46.33
2018-04-01T22:30:15.362Z,48.57
2018-04-01T22:32:43.708Z,46.53
2018-04-01T22:35:12.031Z,49.40
2018-04-01T22:37:40.390Z,47.90
2018-04-01T22:40:08.710Z,48.47
2018-04-01T22:42:37.053Z,47.65
2018-04-01T22:45:05.374Z,45.23
2018-04-01T22:47:33.721Z,44.73
2018-04-01T22:50:02.046Z,42.93
2018-04-01T22:52:30.389Z,45.10
2018-04-01T22:54:58.716Z,44.50
2018-04-01T22:57:27.070Z,45.47
2018-04-01T22:59:55.391Z,46.70
2018-04-01T23:02:23.734Z,45.70
2018-04-01T23:04:52.059Z,44.40
2018-04-01T23:07:20.398Z,43.25
2018-04-01T23:09:48.718Z,43.83
2018-04-01T23:12:17.066Z,45.35
2018-04-01T23:14:45.388Z,46.08
2018-04-01T23:17:13.726Z,44.60
2018-04-01T23:19:42.046Z,43.78
2018-04-01T23:22:10.386Z,44.50
2018-04-01T23:24:38.706Z,44.67
2018-04-01T23:27:07.041Z,44.60
2018-04-01T23:29:35.363Z,45.78
2018-04-01T23:32:03.702Z,45.12
2018-04-01T23:34:32.030Z,48.15
2018-04-01T23:37:00.367Z,46.67
2018-04-01T23:39:28.686Z,45.70
2018-04-01T23:41:57.037Z,46.35
2018-04-01T23:44:25.356Z,45.55
2018-04-01T23:46:53.693Z,47.95
2018-04-01T23:49:22.019Z,48.75
2018-04-01T23:51:50.363Z,48.53
2018-04-01T23:54:18.686Z,44.72
2018-04-01T23:56:47.030Z,48.65
2018-04-01T23:59:15.350Z,45.50
